sensor_id;sensor_type;location;lat;lon;timestamp;pressure;altitude;pressure_sealevel;temperature;humidity
804;BME280;25687;49.976;8.240;2023-02-28T00:00:14;101196.25;;;-1.09;100.00
804;BME280;25687;49.976;8.240;2023-02-28T00:02:42;101196.28;;;-1.08;100.00
804;BME280;25687;49.976;8.240;2023-02-28T00:05:08;101193.72;;;-1.09;100.00
804;BME280;25687;49.976;8.240;2023-02-28T00:07:35;101197.19;;;-1.01;100.00
804;BME280;25687;49.976;8.240;2023-02-28T00:10:01;101193.03;;;-0.94;100.00
804;BME280;25687;49.976;8.240;2023-02-28T00:12:26;101188.03;;;-0.93;100.00
804;BME280;25687;49.976;8.240;2023-02-28T00:14:52;101185.47;;;-0.94;100.00
804;BME280;25687;49.976;8.240;2023-02-28T00:17:17;101184.69;;;-0.87;100.00
804;BME280;25687;49.976;8.240;2023-02-28T00:19:47;101184.75;;;-0.83;100.00
804;BME280;25687;49.976;8.240;2023-02-28T00:22:12;101191.56;;;-0.74;100.00
804;BME280;25687;49.976;8.240;2023-02-28T00:24:38;101184.00;;;-0.72;100.00
804;BME280;25687;49.976;8.240;2023-02-28T00:27:03;101185.75;;;-0.67;100.00
804;BME280;25687;49.976;8.240;2023-02-28T00:29:28;101188.34;;;-0.60;100.00
804;BME280;25687;49.976;8.240;2023-02-28T00:31:54;101187.44;;;-0.66;100.00
804;BME280;25687;49.976;8.240;2023-02-28T00:34:19;101189.13;;;-0.65;100.00
804;BME280;25687;49.976;8.240;2023-02-28T00:36:44;101186.56;;;-0.71;100.00
804;BME280;25687;49.976;8.240;2023-02-28T00:39:11;101182.34;;;-0.72;100.00
804;BME280;25687;49.976;8.240;2023-02-28T00:41:36;101187.41;;;-0.69;100.00
804;BME280;25687;49.976;8.240;2023-02-28T00:44:02;101185.69;;;-0.73;100.00
804;BME280;25687;49.976;8.240;2023-02-28T00:46:27;101188.22;;;-0.71;100.00
804;BME280;25687;49.976;8.240;2023-02-28T00:48:52;101180.66;;;-0.70;100.00
804;BME280;25687;49.976;8.240;2023-02-28T00:51:18;101186.59;;;-0.65;100.00
804;BME280;25687;49.976;8.240;2023-02-28T00:53:43;101179.88;;;-0.64;100.00
804;BME280;25687;49.976;8.240;2023-02-28T00:56:08;101185.75;;;-0.65;100.00
804;BME280;25687;49.976;8.240;2023-02-28T00:58:34;101180.69;;;-0.68;100.00
804;BME280;25687;49.976;8.240;2023-02-28T01:00:59;101179.00;;;-0.65;100.00
804;BME280;25687;49.976;8.240;2023-02-28T01:03:25;101179.81;;;-0.69;100.00
804;BME280;25687;49.976;8.240;2023-02-28T01:05:51;101183.22;;;-0.68;100.00
804;BME280;25687;49.976;8.240;2023-02-28T01:08:18;101186.56;;;-0.69;100.00
804;BME280;25687;49.976;8.240;2023-02-28T01:10:44;101182.38;;;-0.66;100.00
804;BME280;25687;49.976;8.240;2023-02-28T01:13:09;101186.56;;;-0.71;100.00
804;BME280;25687;49.976;8.240;2023-02-28T01:15:35;101186.50;;;-0.77;100.00
804;BME280;25687;49.976;8.240;2023-02-28T01:18:00;101181.41;;;-0.82;100.00
804;BME280;25687;49.976;8.240;2023-02-28T01:20:25;101183.84;;;-0.89;100.00
804;BME280;25687;49.976;8.240;2023-02-28T01:22:51;101177.94;;;-0.88;100.00
804;BME280;25687;49.976;8.240;2023-02-28T01:25:16;101184.63;;;-0.95;100.00
804;BME280;25687;49.976;8.240;2023-02-28T01:27:41;101175.28;;;-1.02;100.00
804;BME280;25687;49.976;8.240;2023-02-28T01:30:08;101171.88;;;-1.07;100.00
804;BME280;25687;49.976;8.240;2023-02-28T01:32:35;101173.56;;;-1.08;100.00
804;BME280;25687;49.976;8.240;2023-02-28T01:35:00;101170.91;;;-1.17;100.00
804;BME280;25687;49.976;8.240;2023-02-28T01:37:26;101171.69;;;-1.23;100.00
804;BME280;25687;49.976;8.240;2023-02-28T01:39:52;101175.06;;;-1.24;100.00
804;BME280;25687;49.976;8.240;2023-02-28T01:42:17;101173.22;;;-1.36;100.00
804;BME280;25687;49.976;8.240;2023-02-28T01:45:03;101176.63;;;-1.32;100.00
804;BME280;25687;49.976;8.240;2023-02-28T01:47:32;101168.16;;;-1.39;100.00
804;BME280;25687;49.976;8.240;2023-02-28T01:50:01;101170.69;;;-1.39;100.00
804;BME280;25687;49.976;8.240;2023-02-28T01:52:27;101174.03;;;-1.41;100.00
804;BME280;25687;49.976;8.240;2023-02-28T01:54:55;101171.41;;;-1.48;100.00
804;BME280;25687;49.976;8.240;2023-02-28T01:57:25;101172.25;;;-1.47;100.00
804;BME280;25687;49.976;8.240;2023-02-28T02:00:05;101166.97;;;-1.66;100.00
804;BME280;25687;49.976;8.240;2023-02-28T02:02:32;101166.25;;;-1.55;100.00
804;BME280;25687;49.976;8.240;2023-02-28T02:05:07;101167.06;;;-1.59;100.00
804;BME280;25687;49.976;8.240;2023-02-28T02:07:35;101163.56;;;-1.69;100.00
804;BME280;25687;49.976;8.240;2023-02-28T02:12:40;101161.78;;;-1.75;100.00
804;BME280;25687;49.976;8.240;2023-02-28T02:15:20;101155.03;;;-1.79;100.00
804;BME280;25687;49.976;8.240;2023-02-28T02:17:52;101159.25;;;-1.78;100.00
804;BME280;25687;49.976;8.240;2023-02-28T02:25:49;101153.22;;;-1.86;100.00
804;BME280;25687;49.976;8.240;2023-02-28T02:36:27;101152.38;;;-1.88;100.00
804;BME280;25687;49.976;8.240;2023-02-28T02:41:40;101149.91;;;-1.84;100.00
804;BME280;25687;49.976;8.240;2023-02-28T02:47:14;101157.34;;;-1.93;100.00
804;BME280;25687;49.976;8.240;2023-02-28T02:49:45;101160.75;;;-1.91;100.00
804;BME280;25687;49.976;8.240;2023-02-28T02:52:14;101153.97;;;-1.95;100.00
804;BME280;25687;49.976;8.240;2023-02-28T02:54:44;101150.59;;;-1.96;100.00
804;BME280;25687;49.976;8.240;2023-02-28T02:57:20;101155.56;;;-2.02;100.00
804;BME280;25687;49.976;8.240;2023-02-28T02:59:49;101159.78;;;-2.01;100.00
804;BME280;25687;49.976;8.240;2023-02-28T03:02:17;101160.59;;;-2.02;100.00
804;BME280;25687;49.976;8.240;2023-02-28T03:04:51;101157.22;;;-2.02;100.00
804;BME280;25687;49.976;8.240;2023-02-28T03:07:17;101152.16;;;-2.02;100.00
804;BME280;25687;49.976;8.240;2023-02-28T03:09:54;101163.94;;;-2.03;100.00
804;BME280;25687;49.976;8.240;2023-02-28T03:12:21;101159.59;;;-2.13;100.00
804;BME280;25687;49.976;8.240;2023-02-28T03:20:39;101154.56;;;-2.12;100.00
804;BME280;25687;49.976;8.240;2023-02-28T03:23:19;101147.84;;;-2.13;100.00
804;BME280;25687;49.976;8.240;2023-02-28T03:26:02;101146.22;;;-2.09;100.00
804;BME280;25687;49.976;8.240;2023-02-28T03:31:37;101152.78;;;-2.19;100.00
804;BME280;25687;49.976;8.240;2023-02-28T03:34:13;101151.13;;;-2.18;100.00
804;BME280;25687;49.976;8.240;2023-02-28T03:36:47;101147.03;;;-2.10;100.00
804;BME280;25687;49.976;8.240;2023-02-28T03:39:18;101146.19;;;-2.12;100.00
804;BME280;25687;49.976;8.240;2023-02-28T03:41:52;101149.47;;;-2.16;100.00
804;BME280;25687;49.976;8.240;2023-02-28T03:44:24;101144.38;;;-2.19;100.00
804;BME280;25687;49.976;8.240;2023-02-28T03:46:58;101142.66;;;-2.22;100.00
804;BME280;25687;49.976;8.240;2023-02-28T03:49:30;101144.31;;;-2.22;100.00
804;BME280;25687;49.976;8.240;2023-02-28T03:51:59;101146.88;;;-2.21;100.00
804;BME280;25687;49.976;8.240;2023-02-28T03:54:36;101154.47;;;-2.19;100.00
804;BME280;25687;49.976;8.240;2023-02-28T03:57:08;101148.63;;;-2.15;100.00
804;BME280;25687;49.976;8.240;2023-02-28T03:59:44;101142.75;;;-2.16;100.00
804;BME280;25687;49.976;8.240;2023-02-28T04:02:11;101149.38;;;-2.21;100.00
804;BME280;25687;49.976;8.240;2023-02-28T04:04:36;101145.22;;;-2.19;100.00
804;BME280;25687;49.976;8.240;2023-02-28T04:07:04;101146.91;;;-2.19;100.00
804;BME280;25687;49.976;8.240;2023-02-28T04:09:30;101150.28;;;-2.17;100.00
804;BME280;25687;49.976;8.240;2023-02-28T04:11:56;101156.19;;;-2.17;100.00
804;BME280;25687;49.976;8.240;2023-02-28T04:14:24;101162.97;;;-2.13;100.00
804;BME280;25687;49.976;8.240;2023-02-28T04:16:49;101162.16;;;-2.10;100.00
804;BME280;25687;49.976;8.240;2023-02-28T04:19:16;101162.13;;;-2.12;100.00
804;BME280;25687;49.976;8.240;2023-02-28T04:21:43;101166.44;;;-2.06;100.00
804;BME280;25687;49.976;8.240;2023-02-28T04:24:12;101165.66;;;-2.02;100.00
804;BME280;25687;49.976;8.240;2023-02-28T04:26:44;101158.81;;;-2.09;100.00
804;BME280;25687;49.976;8.240;2023-02-28T04:29:11;101162.97;;;-2.13;100.00
804;BME280;25687;49.976;8.240;2023-02-28T04:31:37;101166.25;;;-2.18;100.00
804;BME280;25687;49.976;8.240;2023-02-28T04:34:03;101156.16;;;-2.18;100.00
804;BME280;25687;49.976;8.240;2023-02-28T04:36:28;101162.88;;;-2.19;100.00
804;BME280;25687;49.976;8.240;2023-02-28T04:38:53;101157.84;;;-2.17;100.00
804;BME280;25687;49.976;8.240;2023-02-28T04:41:19;101157.84;;;-2.17;100.00
804;BME280;25687;49.976;8.240;2023-02-28T04:43:45;101157.00;;;-2.18;100.00
804;BME280;25687;49.976;8.240;2023-02-28T04:46:10;101156.94;;;-2.21;100.00
804;BME280;25687;49.976;8.240;2023-02-28T04:48:38;101162.84;;;-2.22;100.00
804;BME280;25687;49.976;8.240;2023-02-28T04:51:13;101160.25;;;-2.27;100.00
804;BME280;25687;49.976;8.240;2023-02-28T04:53:40;101157.81;;;-2.20;100.00
804;BME280;25687;49.976;8.240;2023-02-28T04:56:07;101158.63;;;-2.21;100.00
804;BME280;25687;49.976;8.240;2023-02-28T04:58:33;101151.78;;;-2.30;100.00
804;BME280;25687;49.976;8.240;2023-02-28T05:01:04;101146.78;;;-2.27;100.00
804;BME280;25687;49.976;8.240;2023-02-28T05:03:30;101154.41;;;-2.22;100.00
804;BME280;25687;49.976;8.240;2023-02-28T05:05:55;101152.69;;;-2.25;100.00
804;BME280;25687;49.976;8.240;2023-02-28T05:08:21;101156.84;;;-2.29;100.00
804;BME280;25687;49.976;8.240;2023-02-28T05:10:46;101160.25;;;-2.25;100.00
804;BME280;25687;49.976;8.240;2023-02-28T05:13:12;101161.97;;;-2.22;100.00
804;BME280;25687;49.976;8.240;2023-02-28T05:15:40;101161.13;;;-2.24;100.00
804;BME280;25687;49.976;8.240;2023-02-28T05:18:07;101165.28;;;-2.25;100.00
804;BME280;25687;49.976;8.240;2023-02-28T05:20:33;101161.97;;;-2.24;100.00
804;BME280;25687;49.976;8.240;2023-02-28T05:22:59;101163.66;;;-2.21;100.00
804;BME280;25687;49.976;8.240;2023-02-28T05:25:25;101161.13;;;-2.24;100.00
804;BME280;25687;49.976;8.240;2023-02-28T05:27:50;101169.50;;;-2.24;100.00
804;BME280;25687;49.976;8.240;2023-02-28T05:30:16;101164.50;;;-2.22;100.00
804;BME280;25687;49.976;8.240;2023-02-28T05:32:41;101170.41;;;-2.20;100.00
804;BME280;25687;49.976;8.240;2023-02-28T05:35:11;101165.41;;;-2.17;100.00
804;BME280;25687;49.976;8.240;2023-02-28T05:37:37;101172.16;;;-2.16;100.00
804;BME280;25687;49.976;8.240;2023-02-28T05:40:03;101171.31;;;-2.15;100.00
804;BME280;25687;49.976;8.240;2023-02-28T05:42:31;101172.22;;;-2.13;100.00
804;BME280;25687;49.976;8.240;2023-02-28T05:44:56;101169.69;;;-2.13;100.00
804;BME280;25687;49.976;8.240;2023-02-28T05:47:22;101167.13;;;-2.15;100.00
804;BME280;25687;49.976;8.240;2023-02-28T05:49:47;101167.13;;;-2.15;100.00
804;BME280;25687;49.976;8.240;2023-02-28T05:52:12;101168.78;;;-2.17;100.00
804;BME280;25687;49.976;8.240;2023-02-28T05:54:37;101177.09;;;-2.21;100.00
804;BME280;25687;49.976;8.240;2023-02-28T05:57:03;101165.31;;;-2.23;100.00
804;BME280;25687;49.976;8.240;2023-02-28T05:59:28;101172.06;;;-2.21;100.00
804;BME280;25687;49.976;8.240;2023-02-28T06:01:53;101176.19;;;-2.28;100.00
804;BME280;25687;49.976;8.240;2023-02-28T06:04:20;101169.41;;;-2.32;100.00
804;BME280;25687;49.976;8.240;2023-02-28T06:06:47;101171.94;;;-2.30;100.00
804;BME280;25687;49.976;8.240;2023-02-28T06:09:13;101176.97;;;-2.30;100.00
804;BME280;25687;49.976;8.240;2023-02-28T06:11:39;101177.72;;;-2.36;100.00
804;BME280;25687;49.976;8.240;2023-02-28T06:14:04;101175.97;;;-2.40;100.00
804;BME280;25687;49.976;8.240;2023-02-28T06:16:32;101188.69;;;-2.34;100.00
804;BME280;25687;49.976;8.240;2023-02-28T06:19:00;101184.44;;;-2.38;100.00
804;BME280;25687;49.976;8.240;2023-02-28T06:21:26;101181.94;;;-2.35;100.00
804;BME280;25687;49.976;8.240;2023-02-28T06:23:56;101185.25;;;-2.37;100.00
804;BME280;25687;49.976;8.240;2023-02-28T06:26:21;101182.75;;;-2.37;100.00
804;BME280;25687;49.976;8.240;2023-02-28T06:28:47;101195.34;;;-2.37;100.00
804;BME280;25687;49.976;8.240;2023-02-28T06:31:15;101192.03;;;-2.35;100.00
804;BME280;25687;49.976;8.240;2023-02-28T06:33:41;101190.41;;;-2.31;100.00
804;BME280;25687;49.976;8.240;2023-02-28T06:36:08;101193.00;;;-2.28;100.00
804;BME280;25687;49.976;8.240;2023-02-28T06:38:34;101191.28;;;-2.29;100.00
804;BME280;25687;49.976;8.240;2023-02-28T06:41:00;101191.31;;;-2.28;100.00
804;BME280;25687;49.976;8.240;2023-02-28T06:43:31;101193.03;;;-2.23;100.00
804;BME280;25687;49.976;8.240;2023-02-28T06:45:59;101191.47;;;-2.18;100.00
804;BME280;25687;49.976;8.240;2023-02-28T06:48:26;101202.50;;;-2.08;100.00
804;BME280;25687;49.976;8.240;2023-02-28T06:50:52;101202.66;;;-1.99;100.00
804;BME280;25687;49.976;8.240;2023-02-28T06:53:25;101214.44;;;-1.98;100.00
804;BME280;25687;49.976;8.240;2023-02-28T06:55:51;101210.34;;;-1.90;100.00
804;BME280;25687;49.976;8.240;2023-02-28T06:58:16;101209.59;;;-1.84;100.00
804;BME280;25687;49.976;8.240;2023-02-28T07:00:45;101208.84;;;-1.79;100.00
804;BME280;25687;49.976;8.240;2023-02-28T07:03:12;101208.00;;;-1.77;100.00
804;BME280;25687;49.976;8.240;2023-02-28T07:05:38;101209.72;;;-1.76;100.00
804;BME280;25687;49.976;8.240;2023-02-28T07:08:05;101214.75;;;-1.75;100.00
804;BME280;25687;49.976;8.240;2023-02-28T07:10:32;101211.66;;;-1.58;100.00
804;BME280;25687;49.976;8.240;2023-02-28T07:12:58;101211.75;;;-1.49;100.00
804;BME280;25687;49.976;8.240;2023-02-28T07:15:23;101214.59;;;-1.24;100.00
804;BME280;25687;49.976;8.240;2023-02-28T07:17:48;101216.13;;;-0.62;100.00
804;BME280;25687;49.976;8.240;2023-02-28T07:20:14;101216.94;;;0.53;100.00
804;BME280;25687;49.976;8.240;2023-02-28T07:22:39;101219.66;;;0.98;85.56
804;BME280;25687;49.976;8.240;2023-02-28T07:25:05;101214.63;;;1.10;81.20
804;BME280;25687;49.976;8.240;2023-02-28T07:27:31;101225.56;;;0.93;83.09
804;BME280;25687;49.976;8.240;2023-02-28T07:29:56;101228.09;;;0.95;81.22
804;BME280;25687;49.976;8.240;2023-02-28T07:32:22;101229.03;;;1.37;79.28
804;BME280;25687;49.976;8.240;2023-02-28T07:34:48;101229.09;;;1.65;73.76
804;BME280;25687;49.976;8.240;2023-02-28T07:37:14;101221.41;;;1.25;77.00
804;BME280;25687;49.976;8.240;2023-02-28T07:39:39;101217.22;;;1.44;74.91
804;BME280;25687;49.976;8.240;2023-02-28T07:42:07;101226.47;;;1.17;74.88
804;BME280;25687;49.976;8.240;2023-02-28T07:44:35;101218.69;;;0.64;82.51
804;BME280;25687;49.976;8.240;2023-02-28T07:47:05;101216.88;;;0.42;83.13
804;BME280;25687;49.976;8.240;2023-02-28T07:49:31;101221.69;;;0.03;85.63
804;BME280;25687;49.976;8.240;2023-02-28T07:51:57;101225.78;;;-0.14;88.71
804;BME280;25687;49.976;8.240;2023-02-28T07:54:22;101221.63;;;-0.09;90.17
804;BME280;25687;49.976;8.240;2023-02-28T07:56:47;101229.16;;;-0.17;90.45
804;BME280;25687;49.976;8.240;2023-02-28T07:59:12;101224.09;;;-0.17;90.57
804;BME280;25687;49.976;8.240;2023-02-28T08:01:38;101228.47;;;0.04;89.83
804;BME280;25687;49.976;8.240;2023-02-28T08:04:03;101224.22;;;0.05;90.86
804;BME280;25687;49.976;8.240;2023-02-28T08:06:28;101225.00;;;-0.04;89.82
804;BME280;25687;49.976;8.240;2023-02-28T08:08:54;101235.13;;;-0.06;89.96
804;BME280;25687;49.976;8.240;2023-02-28T08:11:21;101229.19;;;-0.09;90.00
804;BME280;25687;49.976;8.240;2023-02-28T08:13:46;101212.28;;;-0.18;91.63
804;BME280;25687;49.976;8.240;2023-02-28T08:16:13;101227.44;;;-0.18;90.93
804;BME280;25687;49.976;8.240;2023-02-28T08:18:46;101227.63;;;0.05;90.02
804;BME280;25687;49.976;8.240;2023-02-28T08:21:12;101236.13;;;0.17;89.07
804;BME280;25687;49.976;8.240;2023-02-28T08:23:37;101231.13;;;0.24;88.65
804;BME280;25687;49.976;8.240;2023-02-28T08:26:04;101233.66;;;0.21;90.39
804;BME280;25687;49.976;8.240;2023-02-28T08:28:30;101234.41;;;0.09;89.49
804;BME280;25687;49.976;8.240;2023-02-28T08:30:55;101229.38;;;0.14;91.00
804;BME280;25687;49.976;8.240;2023-02-28T08:33:21;101228.59;;;0.21;90.87
804;BME280;25687;49.976;8.240;2023-02-28T08:35:47;101232.00;;;0.28;90.74
804;BME280;25687;49.976;8.240;2023-02-28T08:38:13;101226.13;;;0.35;90.81
804;BME280;25687;49.976;8.240;2023-02-28T08:40:38;101223.72;;;0.60;87.87
804;BME280;25687;49.976;8.240;2023-02-28T08:43:03;101227.03;;;0.48;83.54
804;BME280;25687;49.976;8.240;2023-02-28T08:45:29;101225.41;;;0.58;83.38
804;BME280;25687;49.976;8.240;2023-02-28T08:47:54;101233.13;;;0.87;77.85
804;BME280;25687;49.976;8.240;2023-02-28T08:50:21;101231.41;;;0.78;75.82
804;BME280;25687;49.976;8.240;2023-02-28T08:52:47;101230.63;;;0.95;76.13
804;BME280;25687;49.976;8.240;2023-02-28T08:55:12;101229.00;;;1.16;74.05
804;BME280;25687;49.976;8.240;2023-02-28T08:57:37;101234.00;;;1.02;72.67
804;BME280;25687;49.976;8.240;2023-02-28T09:00:03;101239.13;;;1.20;71.68
804;BME280;25687;49.976;8.240;2023-02-28T09:02:30;101234.88;;;1.11;71.77
804;BME280;25687;49.976;8.240;2023-02-28T09:04:56;101225.50;;;0.83;70.18
804;BME280;25687;49.976;8.240;2023-02-28T09:07:21;101247.50;;;0.98;71.65
804;BME280;25687;49.976;8.240;2023-02-28T09:09:46;101228.03;;;0.81;70.35
804;BME280;25687;49.976;8.240;2023-02-28T09:12:25;101228.88;;;0.78;69.71
804;BME280;25687;49.976;8.240;2023-02-28T09:14:52;101223.88;;;0.97;69.58
804;BME280;25687;49.976;8.240;2023-02-28T09:17:17;101221.34;;;0.97;68.78
804;BME280;25687;49.976;8.240;2023-02-28T09:19:43;101222.22;;;1.18;66.99
804;BME280;25687;49.976;8.240;2023-02-28T09:22:09;101211.31;;;1.84;63.98
804;BME280;25687;49.976;8.240;2023-02-28T09:24:36;101212.69;;;2.96;57.42
804;BME280;25687;49.976;8.240;2023-02-28T09:27:02;101211.28;;;3.78;53.09
804;BME280;25687;49.976;8.240;2023-02-28T09:29:27;101208.09;;;3.51;51.83
804;BME280;25687;49.976;8.240;2023-02-28T09:31:52;101211.91;;;4.03;49.90
804;BME280;25687;49.976;8.240;2023-02-28T09:34:18;101218.59;;;4.15;48.90
804;BME280;25687;49.976;8.240;2023-02-28T09:36:43;101213.13;;;4.52;47.72
804;BME280;25687;49.976;8.240;2023-02-28T09:39:09;101219.44;;;4.92;46.52
804;BME280;25687;49.976;8.240;2023-02-28T09:41:39;101202.38;;;4.27;47.51
804;BME280;25687;49.976;8.240;2023-02-28T09:44:18;101207.38;;;4.34;46.90
804;BME280;25687;49.976;8.240;2023-02-28T09:46:48;101236.81;;;4.60;46.08
804;BME280;25687;49.976;8.240;2023-02-28T09:49:21;101214.41;;;4.08;46.70
804;BME280;25687;49.976;8.240;2023-02-28T09:51:54;101209.44;;;3.95;45.94
804;BME280;25687;49.976;8.240;2023-02-28T09:54:23;101207.59;;;4.86;45.91
804;BME280;25687;49.976;8.240;2023-02-28T09:56:58;101210.94;;;4.90;44.50
804;BME280;25687;49.976;8.240;2023-02-28T10:04:57;101211.41;;;5.76;42.14
804;BME280;25687;49.976;8.240;2023-02-28T10:07:35;101229.66;;;4.89;43.38
804;BME280;25687;49.976;8.240;2023-02-28T10:10:14;101219.09;;;4.46;43.30
804;BME280;25687;49.976;8.240;2023-02-28T10:12:44;101217.50;;;5.09;43.51
804;BME280;25687;49.976;8.240;2023-02-28T10:15:16;101230.00;;;4.61;44.25
804;BME280;25687;49.976;8.240;2023-02-28T10:17:44;101223.38;;;4.46;44.54
804;BME280;25687;49.976;8.240;2023-02-28T10:20:16;101217.22;;;5.82;42.49
804;BME280;25687;49.976;8.240;2023-02-28T10:23:19;101223.00;;;4.78;42.70
804;BME280;25687;49.976;8.240;2023-02-28T10:25:52;101225.25;;;3.24;45.95
804;BME280;25687;49.976;8.240;2023-02-28T10:28:19;101224.78;;;2.29;48.14
804;BME280;25687;49.976;8.240;2023-02-28T10:30:50;101224.78;;;2.29;49.56
804;BME280;25687;49.976;8.240;2023-02-28T10:33:31;101222.16;;;2.62;49.05
804;BME280;25687;49.976;8.240;2023-02-28T10:35:58;101228.75;;;3.00;48.68
804;BME280;25687;49.976;8.240;2023-02-28T10:38:26;101223.00;;;2.62;49.75
804;BME280;25687;49.976;8.240;2023-02-28T10:41:07;101225.59;;;2.48;49.79
804;BME280;25687;49.976;8.240;2023-02-28T10:43:32;101223.91;;;2.52;50.16
804;BME280;25687;49.976;8.240;2023-02-28T10:48:36;101218.81;;;2.53;50.60
804;BME280;25687;49.976;8.240;2023-02-28T10:51:04;101227.25;;;2.60;50.27
804;BME280;25687;49.976;8.240;2023-02-28T10:53:37;101211.13;;;2.63;49.92
804;BME280;25687;49.976;8.240;2023-02-28T10:56:15;101212.03;;;2.49;49.64
804;BME280;25687;49.976;8.240;2023-02-28T10:59:03;101205.16;;;2.81;49.39
804;BME280;25687;49.976;8.240;2023-02-28T11:01:45;101210.00;;;3.24;49.51
804;BME280;25687;49.976;8.240;2023-02-28T11:09:55;101204.38;;;2.58;50.42
804;BME280;25687;49.976;8.240;2023-02-28T11:15:06;101192.16;;;3.30;49.54
804;BME280;25687;49.976;8.240;2023-02-28T11:17:39;101188.50;;;3.68;47.44
804;BME280;25687;49.976;8.240;2023-02-28T11:20:07;101185.66;;;3.98;45.87
804;BME280;25687;49.976;8.240;2023-02-28T11:22:44;101175.28;;;4.19;45.61
804;BME280;25687;49.976;8.240;2023-02-28T11:25:22;101182.75;;;4.30;45.70
804;BME280;25687;49.976;8.240;2023-02-28T11:27:54;101171.81;;;4.24;46.23
804;BME280;25687;49.976;8.240;2023-02-28T11:30:28;101174.06;;;3.66;46.99
804;BME280;25687;49.976;8.240;2023-02-28T11:32:53;101175.84;;;3.54;47.03
804;BME280;25687;49.976;8.240;2023-02-28T11:35:36;101161.94;;;3.93;47.13
804;BME280;25687;49.976;8.240;2023-02-28T11:38:07;101169.44;;;4.08;45.76
804;BME280;25687;49.976;8.240;2023-02-28T11:44:01;101169.13;;;3.47;46.42
804;BME280;25687;49.976;8.240;2023-02-28T11:46:41;101171.50;;;3.69;46.08
804;BME280;25687;49.976;8.240;2023-02-28T11:55:39;101160.13;;;4.04;44.79
804;BME280;25687;49.976;8.240;2023-02-28T11:58:33;101161.41;;;3.61;45.77
804;BME280;25687;49.976;8.240;2023-02-28T12:01:21;101168.25;;;3.53;45.98
804;BME280;25687;49.976;8.240;2023-02-28T12:13:19;101171.47;;;4.55;43.62
804;BME280;25687;49.976;8.240;2023-02-28T12:23:54;101165.41;;;3.87;45.01
804;BME280;25687;49.976;8.240;2023-02-28T12:28:58;101151.88;;;3.83;46.14
804;BME280;25687;49.976;8.240;2023-02-28T12:31:29;101157.91;;;3.75;45.51
804;BME280;25687;49.976;8.240;2023-02-28T12:34:00;101160.31;;;3.87;45.99
804;BME280;25687;49.976;8.240;2023-02-28T12:36:26;101147.78;;;3.65;45.45
804;BME280;25687;49.976;8.240;2023-02-28T12:39:00;101161.41;;;3.58;46.06
804;BME280;25687;49.976;8.240;2023-02-28T12:41:41;101162.31;;;3.52;45.89
804;BME280;25687;49.976;8.240;2023-02-28T12:44:18;101148.63;;;3.66;46.38
804;BME280;25687;49.976;8.240;2023-02-28T12:46:49;101146.91;;;3.71;46.05
804;BME280;25687;49.976;8.240;2023-02-28T12:49:20;101152.19;;;3.46;45.41
804;BME280;25687;49.976;8.240;2023-02-28T12:51:48;101159.00;;;3.44;45.55
804;BME280;25687;49.976;8.240;2023-02-28T12:54:25;101150.41;;;3.54;44.95
804;BME280;25687;49.976;8.240;2023-02-28T12:59:51;101146.19;;;3.53;45.93
804;BME280;25687;49.976;8.240;2023-02-28T13:02:33;101144.41;;;3.62;45.21
804;BME280;25687;49.976;8.240;2023-02-28T13:05:32;101151.13;;;3.74;45.05
804;BME280;25687;49.976;8.240;2023-02-28T13:08:31;101138.44;;;3.66;45.25
804;BME280;25687;49.976;8.240;2023-02-28T13:11:03;101146.94;;;3.66;45.30
804;BME280;25687;49.976;8.240;2023-02-28T13:13:29;101145.38;;;3.51;45.70
804;BME280;25687;49.976;8.240;2023-02-28T13:16:09;101144.50;;;3.52;46.04
804;BME280;25687;49.976;8.240;2023-02-28T13:18:36;101137.59;;;3.68;46.07
804;BME280;25687;49.976;8.240;2023-02-28T13:21:04;101139.94;;;3.85;45.58
804;BME280;25687;49.976;8.240;2023-02-28T13:23:39;101151.06;;;3.80;44.79
804;BME280;25687;49.976;8.240;2023-02-28T13:26:05;101140.81;;;3.86;44.81
804;BME280;25687;49.976;8.240;2023-02-28T13:31:20;101145.66;;;4.09;44.75
804;BME280;25687;49.976;8.240;2023-02-28T13:38:42;101127.91;;;4.04;45.22
804;BME280;25687;49.976;8.240;2023-02-28T13:56:57;101125.47;;;3.92;46.16
804;BME280;25687;49.976;8.240;2023-02-28T13:59:35;101132.38;;;3.79;45.75
804;BME280;25687;49.976;8.240;2023-02-28T14:02:26;101138.13;;;4.00;45.95
804;BME280;25687;49.976;8.240;2023-02-28T14:05:01;101131.22;;;4.10;46.04
804;BME280;25687;49.976;8.240;2023-02-28T14:07:33;101125.94;;;4.25;46.26
804;BME280;25687;49.976;8.240;2023-02-28T14:10:06;101115.69;;;4.31;45.72
804;BME280;25687;49.976;8.240;2023-02-28T14:12:57;101119.47;;;3.98;45.62
804;BME280;25687;49.976;8.240;2023-02-28T14:15:45;101122.75;;;4.08;45.92
804;BME280;25687;49.976;8.240;2023-02-28T14:18:33;101123.69;;;3.99;45.93
804;BME280;25687;49.976;8.240;2023-02-28T14:21:25;101127.13;;;3.96;46.03
804;BME280;25687;49.976;8.240;2023-02-28T14:32:37;101117.03;;;3.85;46.35
804;BME280;25687;49.976;8.240;2023-02-28T14:37:53;101117.78;;;3.95;46.03
804;BME280;25687;49.976;8.240;2023-02-28T14:40:30;101114.53;;;3.82;46.36
804;BME280;25687;49.976;8.240;2023-02-28T14:43:00;101121.28;;;3.86;46.19
804;BME280;25687;49.976;8.240;2023-02-28T14:45:30;101110.13;;;3.97;46.67
804;BME280;25687;49.976;8.240;2023-02-28T14:47:56;101118.63;;;3.97;45.94
804;BME280;25687;49.976;8.240;2023-02-28T14:50:34;101111.94;;;3.88;46.58
804;BME280;25687;49.976;8.240;2023-02-28T14:53:01;101125.28;;;4.11;46.78
804;BME280;25687;49.976;8.240;2023-02-28T14:55:36;101104.22;;;3.96;46.80
804;BME280;25687;49.976;8.240;2023-02-28T14:58:05;101104.13;;;4.04;46.16
804;BME280;25687;49.976;8.240;2023-02-28T15:00:39;101096.72;;;3.84;46.82
804;BME280;25687;49.976;8.240;2023-02-28T15:03:25;101106.00;;;3.86;47.43
804;BME280;25687;49.976;8.240;2023-02-28T15:05:55;101106.72;;;4.01;46.99
804;BME280;25687;49.976;8.240;2023-02-28T15:08:21;101108.59;;;3.82;47.01
804;BME280;25687;49.976;8.240;2023-02-28T15:13:45;101100.00;;;3.94;47.67
804;BME280;25687;49.976;8.240;2023-02-28T15:16:19;101099.16;;;3.92;46.77
804;BME280;25687;49.976;8.240;2023-02-28T15:18:51;101093.41;;;3.77;47.58